Time;durP1;ratioP1;P1;durP2;ratioP2;P2;SDS_P1;SDS_P2;PMS_P1;PMS_P2;Temp;Humidity;BMP_temperature;BMP_pressure;BME280_temperature;BME280_humidity;BME280_pressure;Samples;Min_cycle;Max_cycle;Signal;HPM_P1;HPM_P2
2023/08/24 00:01:14;;;;;;;10.63;9.57;;;;;;;27.93;49.51;99409.09;5011904;28;20205;-72
2023/08/24 00:03:42;;;;;;;13.43;9.97;;;;;;;27.96;49.18;99413.91;5011945;28;20256;-72
2023/08/24 00:06:10;;;;;;;11.23;9.77;;;;;;;28.00;48.79;99399.31;5011268;28;20198;-72
2023/08/24 00:08:37;;;;;;;12.00;9.90;;;;;;;28.03;49.21;99401.44;5011224;28;20209;-72
2023/08/24 00:11:04;;;;;;;20.40;9.83;;;;;;;28.05;48.88;99412.84;5011700;28;20198;-72
2023/08/24 00:13:31;;;;;;;13.43;10.17;;;;;;;28.07;48.82;99405.16;5011324;28;20198;-72
2023/08/24 00:15:57;;;;;;;12.83;9.87;;;;;;;28.03;49.59;99414.28;5010934;28;20581;-71
2023/08/24 00:18:26;;;;;;;15.60;11.13;;;;;;;27.95;50.38;99401.38;5011483;28;20280;-72
2023/08/24 00:20:54;;;;;;;17.10;10.97;;;;;;;27.96;50.42;99402.97;5011173;28;21007;-72
2023/08/24 00:23:20;;;;;;;11.50;9.40;;;;;;;27.98;49.94;99398.03;5011586;28;20194;-72
2023/08/24 00:25:47;;;;;;;10.33;9.33;;;;;;;27.96;49.97;99398.34;5010698;28;20190;-72
2023/08/24 00:28:14;;;;;;;10.13;9.23;;;;;;;27.96;50.07;99397.50;5011263;28;20221;-72
2023/08/24 00:30:40;;;;;;;14.37;9.57;;;;;;;27.98;49.67;99408.94;5011565;28;20229;-72
2023/08/24 00:33:07;;;;;;;13.77;9.77;;;;;;;27.95;49.91;99395.91;5011402;28;20261;-72
2023/08/24 00:35:33;;;;;;;18.27;9.53;;;;;;;27.86;49.87;99392.31;5011404;28;20194;-72
2023/08/24 00:38:02;;;;;;;11.60;10.10;;;;;;;27.85;50.21;99398.91;5011087;28;20252;-72
2023/08/24 00:40:28;;;;;;;10.67;9.73;;;;;;;27.72;49.57;99405.22;5011581;28;20272;-72
2023/08/24 00:42:55;;;;;;;11.03;10.10;;;;;;;27.59;49.45;99395.94;5011342;28;20264;-72
2023/08/24 00:45:22;;;;;;;11.90;9.60;;;;;;;27.51;50.86;99391.22;5010860;28;20197;-72
2023/08/24 00:47:49;;;;;;;10.83;9.73;;;;;;;27.55;49.65;99394.13;5010528;28;20576;-72
2023/08/24 00:50:18;;;;;;;8.97;8.47;;;;;;;27.55;49.67;99391.41;5010094;28;20229;-72
2023/08/24 00:52:45;;;;;;;10.10;9.20;;;;;;;27.53;49.36;99393.66;5010546;28;20190;-72
2023/08/24 00:55:14;;;;;;;11.03;9.93;;;;;;;27.51;49.20;99390.41;5010404;28;20277;-72
2023/08/24 00:57:41;;;;;;;10.93;9.63;;;;;;;27.50;49.07;99391.53;5012303;28;20202;-71
2023/08/24 01:00:10;;;;;;;9.83;8.93;;;;;;;27.48;49.23;99391.84;4995196;28;20241;-72
2023/08/24 01:02:37;;;;;;;10.70;9.77;;;;;;;27.48;49.15;99388.31;4995316;28;20222;-71
2023/08/24 01:05:04;;;;;;;9.90;9.17;;;;;;;27.46;49.07;99387.81;4995778;28;20194;-71
2023/08/24 01:07:32;;;;;;;11.00;9.97;;;;;;;27.44;49.52;99379.91;5007274;28;20678;-71
2023/08/24 01:09:59;;;;;;;10.13;9.23;;;;;;;27.44;49.28;99379.13;5014503;28;20570;-71
2023/08/24 01:12:33;;;;;;;17.53;10.60;;;;;;;27.44;49.03;99384.59;5014741;28;20241;-71
2023/08/24 01:15:08;;;;;;;11.60;10.27;;;;;;;27.36;50.11;99388.84;5014256;28;20702;-72
2023/08/24 01:17:36;;;;;;;10.43;9.43;;;;;;;27.33;50.70;99394.94;5013826;28;20277;-72
2023/08/24 01:20:05;;;;;;;10.83;9.73;;;;;;;27.40;50.46;99399.97;5014446;28;20731;-72
2023/08/24 01:22:38;;;;;;;15.67;9.73;;;;;;;27.42;50.70;99403.19;5014708;28;20260;-72
2023/08/24 01:25:17;;;;;;;11.10;10.03;;;;;;;27.42;50.44;99392.25;5014598;28;20654;-72
2023/08/24 01:27:46;;;;;;;10.67;9.67;;;;;;;27.43;50.14;99383.78;5014433;28;20190;-72
2023/08/24 01:30:13;;;;;;;10.20;9.30;;;;;;;27.43;50.81;99377.50;5013645;28;20194;-72
2023/08/24 01:32:41;;;;;;;9.90;9.00;;;;;;;27.37;50.45;99379.56;5014226;28;20226;-72
2023/08/24 01:35:10;;;;;;;10.60;9.70;;;;;;;27.28;51.14;99380.59;5015004;28;20259;-71
2023/08/24 01:37:38;;;;;;;9.90;9.20;;;;;;;27.29;50.91;99383.03;5013955;28;20649;-71
2023/08/24 01:40:11;;;;;;;9.73;9.03;;;;;;;27.23;50.99;99384.22;5013550;28;20234;-71
2023/08/24 01:42:44;;;;;;;9.97;8.53;;;;;;;27.25;51.13;99382.03;5014531;28;20186;-72
2023/08/24 01:45:14;;;;;;;10.47;9.53;;;;;;;27.28;51.29;99378.66;5014135;28;20277;-72
2023/08/24 01:47:43;;;;;;;11.00;9.33;;;;;;;27.34;50.92;99382.06;5014093;28;20658;-72
2023/08/24 01:50:11;;;;;;;9.77;8.83;;;;;;;27.37;51.19;99376.00;5013474;28;20273;-72
2023/08/24 01:52:38;;;;;;;9.17;8.27;;;;;;;27.35;51.16;99381.78;5013789;28;20280;-71
2023/08/24 01:55:06;;;;;;;21.20;10.37;;;;;;;27.31;51.72;99377.25;5014377;28;20252;-72
2023/08/24 01:57:32;;;;;;;19.83;9.90;;;;;;;27.29;51.77;99376.75;5014451;28;20202;-72
2023/08/24 01:59:59;;;;;;;17.27;9.47;;;;;;;27.26;51.98;99377.34;5014436;28;20198;-71
2023/08/24 02:02:27;;;;;;;10.00;8.90;;;;;;;27.19;52.82;99371.50;5013594;28;20260;-71
2023/08/24 02:04:54;;;;;;;9.70;9.00;;;;;;;27.11;52.99;99375.75;5014009;28;20252;-72
2023/08/24 02:07:20;;;;;;;10.13;9.20;;;;;;;27.05;53.13;99376.16;5013830;28;20210;-72
2023/08/24 02:09:47;;;;;;;9.90;8.73;;;;;;;26.97;53.59;99372.25;5011798;28;20214;-71
2023/08/24 02:12:14;;;;;;;10.77;9.20;;;;;;;26.91;53.77;99375.38;5013807;28;20606;-72
2023/08/24 02:14:40;;;;;;;10.53;9.70;;;;;;;26.85;53.46;99376.59;5013933;28;20268;-72
2023/08/24 02:17:07;;;;;;;10.77;9.03;;;;;;;26.75;53.89;99372.16;5014046;28;20190;-72
2023/08/24 02:19:35;;;;;;;9.27;8.57;;;;;;;26.69;54.85;99372.56;5013474;28;20202;-72
2023/08/24 02:22:02;;;;;;;10.20;9.47;;;;;;;26.62;54.59;99372.19;5013652;28;20279;-71
2023/08/24 02:24:28;;;;;;;10.17;9.37;;;;;;;26.36;55.01;99373.75;5013980;28;20252;-72
2023/08/24 02:26:55;;;;;;;10.03;9.43;;;;;;;26.07;55.72;99375.91;5013348;28;20244;-72
2023/08/24 02:29:22;;;;;;;11.50;10.27;;;;;;;25.92;56.01;99365.28;5013317;28;20222;-72
2023/08/24 02:31:50;;;;;;;10.37;9.43;;;;;;;25.87;56.65;99371.63;5012894;28;20585;-72
2023/08/24 02:34:17;;;;;;;10.63;9.50;;;;;;;25.76;56.69;99372.88;5012946;28;20252;-71
2023/08/24 02:36:45;;;;;;;10.97;9.57;;;;;;;25.63;57.53;99376.38;5013978;28;20276;-72
2023/08/24 02:39:12;;;;;;;9.70;9.00;;;;;;;25.62;57.33;99379.38;5013609;28;20202;-72
2023/08/24 02:41:39;;;;;;;12.57;9.90;;;;;;;25.45;57.39;99379.94;5013383;28;20749;-71
2023/08/24 02:44:05;;;;;;;10.77;9.97;;;;;;;25.41;57.07;99380.81;5012468;28;20232;-71
2023/08/24 02:46:32;;;;;;;11.00;10.07;;;;;;;25.43;57.07;99387.56;5013636;28;20190;-71
2023/08/24 02:48:59;;;;;;;10.77;9.70;;;;;;;25.34;57.14;99389.34;5013158;28;20222;-71
2023/08/24 02:51:25;;;;;;;9.50;8.90;;;;;;;25.36;57.83;99375.44;5012828;28;20213;-71
2023/08/24 02:53:53;;;;;;;10.10;9.40;;;;;;;25.46;57.22;99378.81;5012792;28;20252;-70
2023/08/24 02:56:20;;;;;;;9.90;9.30;;;;;;;25.53;57.81;99373.00;5012758;28;20190;-70
2023/08/24 02:58:47;;;;;;;10.40;9.70;;;;;;;25.56;57.11;99375.13;5013045;28;20252;-70
2023/08/24 03:01:13;;;;;;;10.93;9.93;;;;;;;25.42;57.39;99374.25;5013384;28;20245;-70
2023/08/24 03:03:40;;;;;;;10.77;9.60;;;;;;;25.37;57.06;99377.06;5012299;28;20193;-70
2023/08/24 03:06:09;;;;;;;11.73;9.93;;;;;;;25.25;57.65;99368.50;5012751;28;20198;-70
2023/08/24 03:08:36;;;;;;;11.63;10.77;;;;;;;25.14;57.83;99369.78;5012861;28;20599;-70
2023/08/24 03:11:04;;;;;;;11.97;10.83;;;;;;;25.11;57.62;99373.06;5012763;28;20280;-71
2023/08/24 03:13:32;;;;;;;12.13;10.97;;;;;;;24.96;58.02;99379.53;5012018;28;20260;-71
2023/08/24 03:16:03;;;;;;;13.10;11.00;;;;;;;24.93;57.58;99380.09;5012569;28;20190;-71
2023/08/24 03:18:30;;;;;;;12.63;10.63;;;;;;;24.96;57.58;99376.81;5012799;28;20194;-71
2023/08/24 03:20:57;;;;;;;11.03;10.10;;;;;;;24.98;59.04;99380.84;5011437;28;20199;-71
2023/08/24 03:23:23;;;;;;;11.47;10.47;;;;;;;25.07;58.11;99372.03;5012233;28;20194;-71
2023/08/24 03:25:50;;;;;;;11.57;10.67;;;;;;;25.26;57.85;99381.00;5012499;28;20260;-71
2023/08/24 03:28:18;;;;;;;10.50;9.50;;;;;;;25.38;57.81;99389.53;5012270;28;20257;-71
2023/08/24 03:30:49;;;;;;;12.00;10.80;;;;;;;25.46;57.21;99386.16;5012084;28;20201;-71
2023/08/24 03:33:16;;;;;;;13.20;10.53;;;;;;;25.52;57.32;99390.44;5012386;28;20229;-71
2023/08/24 03:35:43;;;;;;;12.37;10.63;;;;;;;25.57;57.26;99383.00;5011323;28;20186;-71
2023/08/24 03:38:10;;;;;;;11.33;10.23;;;;;;;25.58;56.56;99384.63;4992932;28;20191;-71
2023/08/24 03:40:36;;;;;;;11.47;10.07;;;;;;;25.66;56.20;99386.66;4992398;28;20199;-71
2023/08/24 03:43:03;;;;;;;14.47;11.70;;;;;;;25.69;55.83;99396.97;5004773;28;20252;-71
2023/08/24 03:45:31;;;;;;;13.53;11.70;;;;;;;25.55;55.60;99400.75;5012024;28;20731;-71
2023/08/24 03:47:58;;;;;;;13.97;11.23;;;;;;;25.47;56.22;99404.13;5011725;28;20190;-71
2023/08/24 03:50:25;;;;;;;11.17;10.07;;;;;;;25.45;56.45;99412.56;5012099;28;20283;-71
2023/08/24 03:52:54;;;;;;;12.00;10.90;;;;;;;25.49;56.67;99407.34;5011404;28;20268;-71
2023/08/24 03:55:21;;;;;;;11.50;10.60;;;;;;;25.49;56.63;99404.63;5012389;28;20198;-71
2023/08/24 03:57:47;;;;;;;11.23;10.27;;;;;;;25.58;56.51;99411.00;5012174;28;20194;-71
2023/08/24 04:00:15;;;;;;;18.20;11.57;;;;;;;25.63;56.34;99403.56;5012009;28;20198;-71
2023/08/24 04:02:43;;;;;;;10.93;10.13;;;;;;;25.71;56.63;99410.25;5011746;28;20198;-71
2023/08/24 04:05:09;;;;;;;11.43;10.43;;;;;;;25.78;55.82;99407.97;5010957;28;20190;-70
2023/08/24 04:07:38;;;;;;;11.03;10.07;;;;;;;25.82;55.86;99412.53;5011580;28;20198;-70
2023/08/24 04:10:06;;;;;;;11.73;10.47;;;;;;;25.95;55.66;99405.53;5011357;28;20256;-70
2023/08/24 04:12:32;;;;;;;17.57;10.53;;;;;;;26.01;55.16;99410.59;5010391;28;20696;-70
2023/08/24 04:14:59;;;;;;;11.20;9.67;;;;;;;26.08;54.90;99410.19;5011448;28;20194;-70
2023/08/24 04:17:26;;;;;;;11.50;10.30;;;;;;;26.16;55.33;99402.16;5011233;28;20252;-71
2023/08/24 04:19:54;;;;;;;12.93;9.80;;;;;;;26.36;54.36;99407.25;5011381;28;20193;-70
2023/08/24 04:22:21;;;;;;;27.70;10.37;;;;;;;26.61;53.29;99403.25;5010319;28;20865;-70
2023/08/24 04:24:48;;;;;;;10.87;9.77;;;;;;;26.85;53.31;99415.59;5011067;28;20198;-71
2023/08/24 04:27:15;;;;;;;15.67;9.73;;;;;;;27.08;51.50;99417.28;5011015;28;20668;-71
2023/08/24 04:29:42;;;;;;;13.43;9.47;;;;;;;27.40;51.12;99419.06;5010871;28;20732;-72
2023/08/24 04:32:09;;;;;;;11.33;9.30;;;;;;;27.79;50.20;99424.69;5010856;28;20753;-72
2023/08/24 04:34:35;;;;;;;20.40;10.97;;;;;;;28.22;48.53;99428.56;5010067;28;20277;-72
2023/08/24 04:37:03;;;;;;;13.80;10.33;;;;;;;28.63;47.21;99437.31;5010782;28;20194;-73
2023/08/24 04:39:30;;;;;;;14.80;9.93;;;;;;;28.88;46.24;99433.88;5010490;28;20202;-72
2023/08/24 04:41:57;;;;;;;11.33;9.63;;;;;;;29.16;46.03;99438.00;5010714;28;20281;-72
2023/08/24 04:44:24;;;;;;;13.93;9.57;;;;;;;29.44;45.14;99433.88;5010627;28;20720;-72
2023/08/24 04:46:51;;;;;;;10.70;9.63;;;;;;;29.78;44.12;99435.81;5010165;28;20273;-72
2023/08/24 04:49:17;;;;;;;11.70;8.60;;;;;;;30.17;43.28;99438.41;5010183;28;20567;-71
2023/08/24 04:51:44;;;;;;;10.70;9.80;;;;;;;30.53;42.33;99445.06;5010427;28;20248;-73
2023/08/24 04:54:12;;;;;;;12.83;8.93;;;;;;;30.85;41.44;99438.19;5010641;28;20241;-72
2023/08/24 04:56:39;;;;;;;18.30;9.20;;;;;;;31.09;40.78;99450.16;5010161;28;20263;-72
2023/08/24 04:59:07;;;;;;;15.30;10.17;;;;;;;31.34;40.79;99457.47;5010283;28;20788;-72
2023/08/24 05:01:35;;;;;;;16.77;9.60;;;;;;;31.68;39.41;99453.69;5010351;28;20232;-71
2023/08/24 05:04:02;;;;;;;32.40;10.80;;;;;;;32.07;38.60;99467.75;5010570;28;20198;-71
2023/08/24 05:06:28;;;;;;;18.97;9.87;;;;;;;32.20;38.31;99460.34;5009758;28;20190;-71
2023/08/24 05:08:56;;;;;;;12.23;9.13;;;;;;;32.49;38.11;99462.97;5009434;28;20190;-71
2023/08/24 05:11:26;;;;;;;16.67;9.53;;;;;;;32.76;37.39;99452.13;5009286;28;20202;-71
2023/08/24 05:13:53;;;;;;;13.57;8.80;;;;;;;33.00;36.55;99465.91;5009769;28;20201;-71
2023/08/24 05:16:20;;;;;;;14.40;8.60;;;;;;;33.01;36.67;99463.97;5010085;28;20213;-71
2023/08/24 05:18:47;;;;;;;10.57;8.53;;;;;;;33.06;36.64;99459.06;5010360;28;20248;-70
2023/08/24 05:21:13;;;;;;;11.70;8.67;;;;;;;33.13;36.61;99461.22;5010163;28;20281;-71
2023/08/24 05:23:40;;;;;;;8.57;8.03;;;;;;;33.17;36.73;99462.97;5009208;28;20198;-71
2023/08/24 05:26:07;;;;;;;11.93;7.73;;;;;;;33.23;36.08;99460.75;5010393;28;20252;-71
2023/08/24 05:28:35;;;;;;;16.95;9.00;;;;;;;33.03;36.52;99456.97;5010148;28;20674;-72
2023/08/24 05:31:02;;;;;;;8.80;8.00;;;;;;;32.91;36.79;99465.25;5009923;28;20384;-72
2023/08/24 05:33:30;;;;;;;11.20;7.82;;;;;;;32.65;37.41;99461.97;5010039;28;20202;-71
2023/08/24 05:35:57;;;;;;;8.53;7.73;;;;;;;32.77;37.49;99463.94;5009471;28;20186;-71
2023/08/24 05:38:24;;;;;;;10.37;8.33;;;;;;;33.14;36.26;99463.66;5010078;28;20527;-72
2023/08/24 05:40:51;;;;;;;9.15;8.20;;;;;;;33.61;35.54;99474.16;5010133;28;20265;-72
2023/08/24 05:43:17;;;;;;;9.93;7.80;;;;;;;34.14;34.89;99469.09;5010251;28;20198;-72
2023/08/24 05:45:46;;;;;;;11.77;8.52;;;;;;;33.84;34.72;99469.78;5013155;28;20256;-72
2023/08/24 05:48:13;;;;;;;8.57;7.88;;;;;;;34.07;34.80;99468.06;5015991;28;20194;-70
2023/08/24 05:50:43;;;;;;;12.88;8.20;;;;;;;34.45;33.98;99457.34;5013127;28;20217;-70
2023/08/24 05:53:10;;;;;;;8.23;7.40;;;;;;;34.65;33.70;99450.75;5013386;28;20186;-67
2023/08/24 05:55:38;;;;;;;11.80;7.65;;;;;;;35.08;33.32;99458.97;5013659;28;20194;-70
2023/08/24 05:58:04;;;;;;;30.00;9.10;;;;;;;34.69;32.37;99457.16;5011102;28;20333;-67
2023/08/24 06:00:31;;;;;;;9.02;8.20;;;;;;;33.79;34.54;99461.69;5012030;28;20198;-67
2023/08/24 06:02:59;;;;;;;29.35;10.52;;;;;;;33.42;34.90;99460.19;5013072;28;20190;-67
2023/08/24 06:05:26;;;;;;;16.88;8.15;;;;;;;33.14;35.86;99463.66;5013091;28;20681;-68
2023/08/24 06:07:53;;;;;;;14.20;8.70;;;;;;;33.06;35.49;99464.56;5013286;28;20569;-71
2023/08/24 06:10:19;;;;;;;9.75;8.15;;;;;;;33.33;35.57;99472.13;5013045;28;20229;-73
2023/08/24 06:12:46;;;;;;;16.98;8.38;;;;;;;33.93;34.58;99467.66;5012254;28;20221;-75
2023/08/24 06:15:13;;;;;;;13.18;8.32;;;;;;;34.27;34.19;99462.34;5012054;28;20732;-74
2023/08/24 06:17:40;;;;;;;12.13;8.02;;;;;;;34.66;33.74;99464.19;5012920;28;20198;-66
2023/08/24 06:20:11;;;;;;;11.10;8.07;;;;;;;34.81;33.20;99454.34;5025754;28;20271;-64
2023/08/24 06:22:38;;;;;;;9.57;8.30;;;;;;;35.15;32.77;99464.66;5018158;28;20197;-64
2023/08/24 06:25:08;;;;;;;26.30;8.90;;;;;;;35.00;31.29;99446.16;5010478;28;20202;-64
2023/08/24 06:27:35;;;;;;;10.20;8.32;;;;;;;35.13;31.39;99461.44;5011707;28;20563;-62
2023/08/24 06:30:03;;;;;;;8.70;7.88;;;;;;;35.25;31.89;99453.88;5011374;28;20721;-63
2023/08/24 06:32:29;;;;;;;30.10;9.75;;;;;;;34.59;32.15;99461.28;5017347;28;20588;-61
2023/08/24 06:34:56;;;;;;;12.93;9.32;;;;;;;34.19;32.96;99463.31;5019500;28;20259;-62
2023/08/24 06:37:24;;;;;;;10.93;8.35;;;;;;;33.94;33.64;99474.78;5023376;28;20197;-61
2023/08/24 06:39:51;;;;;;;13.05;7.75;;;;;;;33.63;33.90;99474.63;5030530;28;20283;-65
2023/08/24 06:42:18;;;;;;;21.52;9.05;;;;;;;33.26;34.97;99473.84;5018735;28;20259;-63
2023/08/24 06:44:45;;;;;;;10.40;8.80;;;;;;;33.04;35.68;99464.09;5002082;28;20253;-63
2023/08/24 06:47:11;;;;;;;26.92;8.70;;;;;;;32.88;35.87;99476.97;5009656;28;20194;-63
2023/08/24 06:49:38;;;;;;;12.40;8.38;;;;;;;32.64;36.61;99487.91;5011285;28;20271;-63
2023/08/24 06:52:05;;;;;;;9.90;9.00;;;;;;;32.41;36.96;99492.19;5011502;28;20256;-63
2023/08/24 06:54:33;;;;;;;13.20;8.53;;;;;;;32.26;37.68;99492.78;5011165;28;20255;-65
2023/08/24 06:57:00;;;;;;;9.63;8.73;;;;;;;32.04;38.52;99515.16;5011854;28;20224;-66
2023/08/24 06:59:27;;;;;;;14.80;9.27;;;;;;;31.78;39.22;99514.56;5011332;28;20198;-65
2023/08/24 07:01:53;;;;;;;13.47;9.87;;;;;;;31.51;39.56;99520.53;5012200;28;20280;-64
2023/08/24 07:04:20;;;;;;;13.47;9.40;;;;;;;31.30;41.06;99535.34;5010969;28;20194;-67
2023/08/24 07:06:47;;;;;;;14.70;8.93;;;;;;;31.08;41.33;99543.81;5010123;28;20265;-66
2023/08/24 07:09:15;;;;;;;15.87;8.73;;;;;;;30.54;41.89;99539.91;5007583;28;20682;-64
2023/08/24 07:11:43;;;;;;;14.17;9.27;;;;;;;30.47;43.09;99531.38;5009797;28;20218;-65
2023/08/24 07:14:10;;;;;;;15.73;8.73;;;;;;;30.48;44.63;99513.78;5003988;28;20194;-65
2023/08/24 07:16:36;;;;;;;26.93;10.23;;;;;;;30.40;48.33;99495.41;5009460;28;20193;-66
2023/08/24 07:19:04;;;;;;;17.77;10.13;;;;;;;30.39;52.77;99487.53;5017265;28;20548;-66
2023/08/24 07:21:30;;;;;;;11.20;9.73;;;;;;;30.29;54.47;99469.47;5022489;28;20240;-65
2023/08/24 07:23:57;;;;;;;10.87;9.97;;;;;;;30.34;58.74;99468.50;5031431;28;20275;-64
2023/08/24 07:26:25;;;;;;;16.57;11.03;;;;;;;29.51;61.67;99461.53;5030706;28;20197;-65
2023/08/24 07:28:53;;;;;;;11.90;10.70;;;;;;;29.02;62.17;99440.84;5013313;28;20277;-64
2023/08/24 07:31:20;;;;;;;11.50;10.47;;;;;;;28.48;64.85;99445.91;5011390;28;20233;-63
2023/08/24 07:33:46;;;;;;;10.40;9.37;;;;;;;28.46;65.19;99448.97;5012403;28;20194;-63
2023/08/24 07:36:13;;;;;;;12.23;9.00;;;;;;;28.52;65.65;99463.31;5012394;28;20186;-63
2023/08/24 07:38:40;;;;;;;11.23;9.37;;;;;;;28.80;67.01;99468.28;5012664;28;20198;-63
2023/08/24 07:41:07;;;;;;;17.33;10.67;;;;;;;29.17;67.34;99470.53;5012330;28;20275;-62
2023/08/24 07:43:33;;;;;;;9.90;8.93;;;;;;;29.67;63.75;99465.47;5012478;28;20190;-63
2023/08/24 07:46:01;;;;;;;10.57;9.67;;;;;;;30.05;62.95;99477.38;5011618;28;20186;-62
2023/08/24 07:48:28;;;;;;;11.37;10.17;;;;;;;30.34;61.58;99483.00;5012352;28;20272;-63
2023/08/24 07:50:55;;;;;;;9.77;8.90;;;;;;;30.37;61.93;99474.13;5012241;28;20240;-63
2023/08/24 07:53:21;;;;;;;9.47;8.17;;;;;;;30.24;65.63;99477.88;5012026;28;20738;-63
2023/08/24 07:55:48;;;;;;;7.90;7.30;;;;;;;30.50;63.57;99473.13;5011268;28;20662;-62
2023/08/24 07:58:15;;;;;;;7.80;6.57;;;;;;;30.78;63.25;99471.63;5011949;28;20650;-63
2023/08/24 08:00:41;;;;;;;8.50;6.00;;;;;;;31.15;60.96;99479.03;5011745;28;20587;-63
2023/08/24 08:03:09;;;;;;;7.53;6.70;;;;;;;31.28;60.22;99478.00;5011719;28;20194;-63
2023/08/24 08:05:36;;;;;;;7.00;6.33;;;;;;;31.67;59.66;99480.34;5020528;28;20185;-63
2023/08/24 08:08:04;;;;;;;6.40;5.80;;;;;;;32.31;56.95;99476.13;5020209;28;20196;-73
2023/08/24 08:10:31;;;;;;;7.70;7.03;;;;;;;32.67;55.40;99476.19;5019494;28;20280;-65
2023/08/24 08:12:58;;;;;;;8.17;7.33;;;;;;;32.66;51.76;99473.81;5018535;28;20256;-66
2023/08/24 08:15:25;;;;;;;7.23;6.80;;;;;;;32.72;50.33;99473.22;5018009;28;20190;-64
2023/08/24 08:17:52;;;;;;;8.10;6.33;;;;;;;33.08;49.49;99481.53;5017120;28;20194;-65
2023/08/24 08:20:20;;;;;;;7.95;7.10;;;;;;;33.24;47.82;99479.69;5015405;28;20205;-68
2023/08/24 08:22:47;;;;;;;7.85;6.50;;;;;;;33.17;47.70;99481.41;5009285;28;20194;-64
2023/08/24 08:25:13;;;;;;;8.50;5.97;;;;;;;33.01;46.95;99484.06;5009524;28;20252;-65
2023/08/24 08:27:40;;;;;;;9.02;5.90;;;;;;;33.05;47.43;99479.47;5008159;28;20190;-65
2023/08/24 08:30:08;;;;;;;11.17;6.33;;;;;;;33.01;46.96;99470.31;5008850;28;20230;-64
2023/08/24 08:32:34;;;;;;;7.03;6.47;;;;;;;33.11;46.56;99474.53;5010656;28;20240;-65
2023/08/24 08:35:01;;;;;;;6.83;6.23;;;;;;;33.51;46.16;99471.91;5009694;28;20233;-64
2023/08/24 08:37:32;;;;;;;7.13;6.50;;;;;;;33.80;43.45;99463.31;5009320;28;20190;-66
2023/08/24 08:39:58;;;;;;;16.95;6.13;;;;;;;33.66;43.85;99468.41;5010058;28;20214;-67
2023/08/24 08:42:25;;;;;;;13.43;6.43;;;;;;;33.53;42.27;99458.56;5009564;28;20193;-66
2023/08/24 08:44:53;;;;;;;8.55;6.50;;;;;;;33.50;42.56;99459.25;5009430;28;20193;-61
2023/08/24 08:47:21;;;;;;;9.52;7.20;;;;;;;33.15;43.84;99465.25;5008972;28;20244;-68
2023/08/24 08:49:49;;;;;;;7.15;6.35;;;;;;;33.62;44.48;99453.72;5012231;28;21169;-66
2023/08/24 08:52:16;;;;;;;8.75;6.55;;;;;;;33.82;43.72;99452.75;5013849;28;20189;-64
2023/08/24 08:54:44;;;;;;;7.18;6.38;;;;;;;33.97;44.96;99447.31;5012585;28;20616;-62
2023/08/24 08:57:11;;;;;;;8.80;6.95;;;;;;;34.08;44.39;99450.38;5025659;28;20731;-64
2023/08/24 08:59:38;;;;;;;6.85;6.45;;;;;;;34.20;43.83;99453.06;5009530;28;20198;-63
2023/08/24 09:02:06;;;;;;;7.20;6.65;;;;;;;34.13;43.43;99455.63;5010844;28;20629;-64
2023/08/24 09:04:33;;;;;;;7.47;6.90;;;;;;;34.04;44.30;99446.72;5011163;28;20194;-63
2023/08/24 09:07:03;;;;;;;11.27;7.43;;;;;;;34.01;43.84;99453.72;4991872;28;20190;-64
2023/08/24 09:09:30;;;;;;;8.07;6.95;;;;;;;34.04;43.22;99452.25;4991617;28;20667;-64
2023/08/24 09:11:59;;;;;;;7.05;6.40;;;;;;;34.06;43.94;99456.25;4991413;28;20245;-63
2023/08/24 09:14:25;;;;;;;9.50;7.20;;;;;;;34.05;43.18;99451.88;5003738;28;20255;-63
2023/08/24 09:16:52;;;;;;;13.63;7.85;;;;;;;34.11;45.07;99441.38;5011482;28;20190;-64
2023/08/24 09:19:19;;;;;;;8.32;7.40;;;;;;;34.22;44.53;99443.31;5014060;28;20197;-64
2023/08/24 09:21:46;;;;;;;19.60;8.35;;;;;;;34.53;45.79;99437.84;5015393;28;20202;-64
2023/08/24 09:24:13;;;;;;;13.80;7.75;;;;;;;34.83;43.78;99441.78;5012643;28;20193;-66
2023/08/24 09:26:42;;;;;;;14.50;7.82;;;;;;;34.65;44.83;99439.69;5014841;28;20222;-64
2023/08/24 09:29:15;;;;;;;8.25;7.43;;;;;;;34.89;44.68;99431.28;5014839;28;20536;-63
2023/08/24 09:31:43;;;;;;;8.85;7.82;;;;;;;34.96;44.40;99434.22;5014861;28;20696;-62
2023/08/24 09:34:11;;;;;;;11.05;8.20;;;;;;;35.18;44.46;99425.25;5015063;28;20285;-61
2023/08/24 09:36:39;;;;;;;7.82;7.03;;;;;;;35.08;41.69;99431.34;5014368;28;20334;-62
2023/08/24 09:39:06;;;;;;;11.48;7.97;;;;;;;35.33;41.52;99435.50;5014509;28;20289;-66
2023/08/24 09:41:40;;;;;;;9.88;7.28;;;;;;;35.63;42.28;99425.50;5013786;28;20237;-61
2023/08/24 09:44:07;;;;;;;7.90;7.30;;;;;;;35.83;40.93;99424.38;5014874;28;20244;-60
2023/08/24 09:46:35;;;;;;;12.13;7.70;;;;;;;35.75;40.78;99428.97;5013893;28;20221;-61
2023/08/24 09:49:02;;;;;;;7.95;7.15;;;;;;;35.81;40.83;99427.50;5014683;28;20646;-61
2023/08/24 09:51:29;;;;;;;12.20;8.18;;;;;;;35.95;41.30;99422.28;5014199;28;20225;-59
2023/08/24 09:53:59;;;;;;;9.73;7.50;;;;;;;35.67;39.01;99420.84;5012027;28;20936;-61
2023/08/24 09:56:28;;;;;;;8.27;7.32;;;;;;;35.48;39.73;99412.56;5012077;28;20289;-64
2023/08/24 09:58:58;;;;;;;8.63;7.88;;;;;;;35.12;41.67;99418.41;5011605;28;20248;-64
2023/08/24 10:01:25;;;;;;;23.92;8.48;;;;;;;35.16;43.26;99417.34;5009862;28;20198;-61
2023/08/24 10:03:56;;;;;;;9.65;7.65;;;;;;;35.37;42.51;99411.53;5011192;28;20194;-66
2023/08/24 10:06:28;;;;;;;8.30;7.75;;;;;;;35.60;42.16;99418.75;5011925;28;20277;-60
2023/08/24 10:08:59;;;;;;;15.65;8.35;;;;;;;35.78;41.54;99416.38;5013053;28;20217;-58
2023/08/24 10:11:29;;;;;;;11.13;8.60;;;;;;;35.80;43.52;99414.84;5021065;28;20671;-59
2023/08/24 10:14:06;;;;;;;9.25;8.43;;;;;;;35.85;44.04;99413.75;5025154;28;20636;-59
2023/08/24 10:16:34;;;;;;;9.80;8.30;;;;;;;35.77;42.67;99415.56;5018223;28;20268;-59
2023/08/24 10:19:03;;;;;;;19.00;11.13;;;;;;;35.83;43.10;99416.09;5018420;28;20269;-61
2023/08/24 10:21:30;;;;;;;9.60;8.55;;;;;;;35.92;42.55;99408.34;5022189;28;20279;-59
2023/08/24 10:23:58;;;;;;;22.10;8.70;;;;;;;36.01;40.71;99395.13;5019130;28;20189;-64
2023/08/24 10:26:25;;;;;;;12.85;8.13;;;;;;;36.11;41.46;99397.28;5020109;28;20190;-63
2023/08/24 10:28:51;;;;;;;10.93;8.40;;;;;;;36.03;41.67;99392.78;5006915;28;20210;-64
2023/08/24 10:31:18;;;;;;;8.27;7.68;;;;;;;35.96;41.66;99389.88;4993594;28;20325;-60
2023/08/24 10:33:47;;;;;;;10.80;7.90;;;;;;;35.75;40.60;99379.19;4992730;28;20269;-60
2023/08/24 10:36:15;;;;;;;8.70;7.47;;;;;;;35.93;41.11;99379.56;5010001;28;20378;-61
2023/08/24 10:38:42;;;;;;;32.75;8.95;;;;;;;36.10;38.04;99373.56;5010592;28;20194;-62
2023/08/24 10:41:09;;;;;;;7.45;6.50;;;;;;;36.17;38.10;99363.41;5012188;28;20297;-64
2023/08/24 10:43:36;;;;;;;9.57;6.40;;;;;;;36.42;37.38;99369.41;5011670;28;20249;-62
2023/08/24 10:46:04;;;;;;;11.40;6.88;;;;;;;36.32;37.40;99364.47;5012318;28;20583;-64
2023/08/24 10:48:32;;;;;;;7.28;6.63;;;;;;;36.36;36.91;99366.16;5011323;28;20358;-63
2023/08/24 10:51:19;;;;;;;9.45;6.40;;;;;;;36.27;36.85;99365.59;5010061;28;20226;-66
2023/08/24 10:53:47;;;;;;;14.50;6.97;;;;;;;36.14;36.71;99352.28;5003182;28;20635;-63
2023/08/24 10:56:15;;;;;;;10.27;7.70;;;;;;;35.89;37.49;99351.03;5012078;28;20666;-66
2023/08/24 10:58:43;;;;;;;9.43;7.32;;;;;;;35.76;38.42;99344.84;5011329;28;20567;-63
2023/08/24 11:01:15;;;;;;;8.23;7.38;;;;;;;35.77;37.68;99345.66;5011905;28;20198;-62
2023/08/24 11:03:46;;;;;;;9.10;7.15;;;;;;;35.59;37.74;99338.94;5011156;28;20530;-64
2023/08/24 11:06:22;;;;;;;7.28;6.88;;;;;;;35.17;37.48;99336.06;5010315;28;20273;-63
2023/08/24 11:08:50;;;;;;;7.50;6.90;;;;;;;35.17;36.77;99330.56;5011747;28;20251;-63
2023/08/24 11:11:20;;;;;;;16.17;7.63;;;;;;;35.28;37.92;99317.78;5009748;28;20230;-71
2023/08/24 11:14:19;;;;;;;8.48;7.03;;;;;;;35.30;38.61;99317.41;5011232;28;20737;-67
2023/08/24 11:16:47;;;;;;;8.68;7.72;;;;;;;35.28;38.12;99315.00;4948729;29;20211;-63
2023/08/24 11:19:14;;;;;;;11.10;7.45;;;;;;;35.41;38.00;99312.91;5000536;28;20557;-61
2023/08/24 11:21:44;;;;;;;7.45;6.88;;;;;;;35.46;35.88;99309.84;5002929;28;20254;-66
2023/08/24 11:24:14;;;;;;;6.68;6.38;;;;;;;35.51;35.65;99312.31;4996903;28;20206;-62
2023/08/24 11:26:42;;;;;;;13.52;7.53;;;;;;;35.59;35.51;99303.00;5011227;28;20629;-64
2023/08/24 11:29:09;;;;;;;6.65;6.35;;;;;;;35.81;33.97;99299.53;5010701;28;20248;-69